Ginys del Meteocat
Campanya meteocatpedra

Dades de l'estació automàtica Rellinars

?
?
Resum diari 22:00 TU
Dades diàries de l'estació meteorològica
Temperatura mitjana 12.3 °C
Temperatura màxima 15.9 °C 12:27 TU
Temperatura mínima 9.7 °C 5:04 TU
Humitat relativa mitjana 87%
Precipitació acumulada 0.1 mm
Ratxa màxima del vent (2 m) 10.1 km/h - 138º 18:12 TU
Irradiació solar global 5.4 MJ/m2

El tram horari està expressat en Temps Universal (TU). Cal sumar una hora en horari d'hivern i dues en horari d'estiu per passar a l'hora oficial.

Rellinars

Metadades estació meteorol´gica
Municipi Rellinars
Comarca Vallès Occidental
Altitud 421 m
Data alta 18.02.1998
Estat actual Operativa
Dades de període
Període
TU
TM
°C
TX
°C
TN
°C
HRM
%
PPT
mm
VVM (2 m)
km/h
DVM (2 m)
graus
VVX (2 m)
km/h
RS
W/m2
00:00 - 00:30 11.8 11.9 11.7 96 0.0 1.1 336 5.0 0
00:30 - 01:00 11.5 11.7 11.3 95 0.0 1.1 1 4.7 0
01:00 - 01:30 11.4 11.4 11.3 95 0.0 0.4 13 2.5 0
01:30 - 02:00 11.3 11.4 11.3 94 0.0 0.7 23 2.9 0
02:00 - 02:30 11.1 11.3 10.9 94 0.0 0.4 318 3.2 0
02:30 - 03:00 10.8 10.9 10.5 95 0.0 0.4 318 5.0 0
03:00 - 03:30 10.7 10.8 10.5 96 0.0 2.5 335 5.8 0
03:30 - 04:00 10.8 10.8 10.7 96 0.0 0.4 18 3.2 0
04:00 - 04:30 10.7 10.8 10.6 95 0.0 0.7 349 5.8 0
04:30 - 05:00 10.1 10.6 9.7 95 0.0 2.2 315 5.8 0
05:00 - 05:30 9.9 10.2 9.7 96 0.1 0.7 346 2.9 0
05:30 - 06:00 10.1 10.1 10.0 97 0.0 2.9 324 6.5 0
06:00 - 06:30 10.1 10.2 10.1 97 0.0 3.2 318 7.6 2
06:30 - 07:00 9.9 10.1 9.8 96 0.0 2.5 326 6.5 14
07:00 - 07:30 10.1 10.2 10.0 95 0.0 2.2 308 8.6 53
07:30 - 08:00 10.1 10.3 10.0 95 0.0 2.2 321 7.2 56
08:00 - 08:30 10.3 10.6 10.1 95 0.0 0.7 341 4.7 70
08:30 - 09:00 10.8 11.0 10.6 91 0.0 0.4 7 5.0 88
09:00 - 09:30 11.1 11.3 10.8 88 0.0 1.4 346 9.7 115
09:30 - 10:00 11.6 12.3 11.3 86 0.0 0.4 355 2.9 145
10:00 - 10:30 12.0 12.3 11.8 84 0.0 1.4 319 6.1 125
10:30 - 11:00 12.0 12.5 11.7 83 0.0 1.8 317 7.9 195
11:00 - 11:30 12.5 12.7 12.2 81 0.0 1.1 271 4.7 196
11:30 - 12:00 12.8 13.1 12.6 81 0.0 0.7 324 3.6 181
12:00 - 12:30 14.7 15.9 12.9 73 0.0 2.2 274 6.8 603
12:30 - 13:00 14.8 15.7 14.3 71 0.0 1.8 259 5.8 304
13:00 - 13:30 14.3 14.5 13.9 74 0.0 1.4 306 4.7 219
13:30 - 14:00 14.5 14.9 14.2 74 0.0 0.7 275 4.3 202
14:00 - 14:30 14.8 15.0 14.7 74 0.0 0.4 303 2.9 162
14:30 - 15:00 14.8 14.9 14.7 74 0.0 0.7 248 3.6 110
15:00 - 15:30 14.6 14.8 14.6 75 0.0 1.1 275 4.0 94
15:30 - 16:00 14.6 14.7 14.5 76 0.0 0.7 201 3.2 48
16:00 - 16:30 14.1 14.6 13.9 79 0.0 0.4 304 4.3 22
16:30 - 17:00 14.0 14.2 13.8 80 0.0 0.4 217 4.0 10
17:00 - 17:30 13.9 14.1 13.8 82 0.0 0.7 83 3.2 1
17:30 - 18:00 14.1 14.2 13.9 87 0.0 2.9 144 8.6 0
18:00 - 18:30 13.8 14.0 13.6 90 0.0 4.7 140 10.1 0
18:30 - 19:00 13.6 13.7 13.5 88 0.0 4.0 124 8.6 0
19:00 - 19:30 13.5 13.5 13.4 87 0.0 1.4 80 7.9 0
19:30 - 20:00 13.4 13.5 13.3 85 0.0 1.1 78 6.5 0
20:00 - 20:30 13.4 13.4 13.4 82 0.0 2.9 73 7.2 0
20:30 - 21:00 13.2 13.4 13.0 81 0.0 1.1 71 3.6 0
21:00 - 21:30 12.8 13.1 12.5 85 0.0 0.4 253 2.9 0
21:30 - 22:00 12.3 12.5 12.2 90 0.0 1.1 56 5.8 0
22:00 - 22:30 12.2 12.3 12.1 91 0.0 2.2 65 6.5 0

Les dades en taronja només han passat un control de qualitat automàtic. Resta pendent la seva validació definitiva.